PWSweather.com
Personal Weather Stations
Station Observations
RAINWISE1
Rainwise Factory, Bar Harbor, ME 04609

Rainwise FactoryBar Harbor, ME 04609

Lat: 44.3897429696629, Lon: -68.2077813148499

Elevation: 29

Station Type: Rainwise MK-III

www.rainwise.com

High Low Average
Temperature 77.5°F25.3°F 45.6°F7.6°F 62.9°F17.2°F
Dew Point 64.4°F18.0°F 45.6°F7.6°F 53.7°F12.1°F
Winds 9.3 mph SSW15.0 mph SSW Calm Calm 3.0 mph 4.8 mph
Wind Gusts 13.0 mph20.9 mph -- 4.4 mph7.1 mph
Humidity 100% 44% 76%
Pressure 30.27 in1025.10 in 30.13 in1020.30 in -
Precipitation 0.00 in0.00 in - -
Hour Temp Dew Point Humidity Winds Wind Gusts Pressure Precip Precip Rate Daily Precip Total
12:04 AM 52.2°F11.2°C 51.1°F10.6°C 96% Calm Calm -- 30.23 in1023.7 mb 0.00 in0.0 mm 0.00 in0.0 mm 0.00 in0.0 mm
12:09 AM 52.1°F11.2°C 51.0°F10.6°C 96% Calm Calm -- 30.23 in1023.7 mb 0.00 in0.0 mm 0.00 in0.0 mm 0.00 in0.0 mm
12:14 AM 51.8°F11.0°C 51.0°F10.6°C 97% Calm Calm -- 30.23 in1023.7 mb 0.00 in0.0 mm 0.00 in0.0 mm 0.00 in0.0 mm
12:19 AM 51.8°F11.0°C 51.0°F10.6°C 97% Calm Calm -- 30.23 in1023.7 mb 0.00 in0.0 mm 0.00 in0.0 mm 0.00 in0.0 mm
12:24 AM 51.8°F11.0°C 51.0°F10.6°C 97% Calm Calm -- 30.23 in1023.7 mb 0.00 in0.0 mm 0.00 in0.0 mm 0.00 in0.0 mm
12:29 AM 51.7°F10.9°C 50.9°F10.5°C 97% Calm Calm -- 30.23 in1023.7 mb 0.00 in0.0 mm 0.00 in0.0 mm 0.00 in0.0 mm
12:34 AM 51.6°F10.9°C 50.8°F10.4°C 97% Calm Calm -- 30.23 in1023.7 mb 0.00 in0.0 mm 0.00 in0.0 mm 0.00 in0.0 mm
12:39 AM 51.3°F10.7°C 50.8°F10.4°C 98% Calm Calm -- 30.23 in1023.7 mb 0.00 in0.0 mm 0.00 in0.0 mm 0.00 in0.0 mm
12:44 AM 51.0°F10.6°C 50.5°F10.3°C 98% Calm Calm -- 30.23 in1023.7 mb 0.00 in0.0 mm 0.00 in0.0 mm 0.00 in0.0 mm
12:49 AM 50.8°F10.4°C 50.3°F10.2°C 98% Calm Calm -- 30.23 in1023.7 mb 0.00 in0.0 mm 0.00 in0.0 mm 0.00 in0.0 mm
12:54 AM 50.8°F10.4°C 50.3°F10.2°C 98% Calm Calm -- 30.23 in1023.7 mb 0.00 in0.0 mm 0.00 in0.0 mm 0.00 in0.0 mm
12:59 AM 50.7°F10.4°C 50.2°F10.1°C 98% Calm Calm -- 30.23 in1023.7 mb 0.00 in0.0 mm 0.00 in0.0 mm 0.00 in0.0 mm
01:04 AM 50.4°F10.2°C 49.9°F9.9°C 98% Calm Calm -- 30.23 in1023.7 mb 0.00 in0.0 mm 0.00 in0.0 mm 0.00 in0.0 mm
01:09 AM 50.2°F10.1°C 49.7°F9.8°C 98% Calm Calm -- 30.23 in1023.7 mb 0.00 in0.0 mm 0.00 in0.0 mm 0.00 in0.0 mm
01:14 AM 50.1°F10.1°C 49.6°F9.8°C 98% Calm Calm -- 30.23 in1023.7 mb 0.00 in0.0 mm 0.00 in0.0 mm 0.00 in0.0 mm
01:19 AM 50.1°F10.1°C 49.6°F9.8°C 98% Calm Calm -- 30.22 in1023.4 mb 0.00 in0.0 mm 0.00 in0.0 mm 0.00 in0.0 mm
01:24 AM 49.8°F9.9°C 49.3°F9.6°C 98% Calm Calm -- 30.22 in1023.4 mb 0.00 in0.0 mm 0.00 in0.0 mm 0.00 in0.0 mm
01:29 AM 49.6°F9.8°C 48.8°F9.3°C 97% Calm Calm -- 30.22 in1023.4 mb 0.00 in0.0 mm 0.00 in0.0 mm 0.00 in0.0 mm
01:34 AM 49.6°F9.8°C 49.1°F9.5°C 98% Calm Calm -- 30.22 in1023.4 mb 0.00 in0.0 mm 0.00 in0.0 mm 0.00 in0.0 mm
01:39 AM 49.6°F9.8°C 49.1°F9.5°C 98% 1.4 mph NW2.3 kmh NW 2.1 mph3.4 kmh 30.23 in1023.7 mb 0.00 in0.0 mm 0.00 in0.0 mm 0.00 in0.0 mm
01:44 AM 49.5°F9.7°C 49.0°F9.4°C 98% Calm Calm -- 30.22 in1023.4 mb 0.00 in0.0 mm 0.00 in0.0 mm 0.00 in0.0 mm
01:49 AM 49.2°F9.6°C 48.9°F9.4°C 99% Calm Calm -- 30.22 in1023.4 mb 0.00 in0.0 mm 0.00 in0.0 mm 0.00 in0.0 mm
01:54 AM 49.0°F9.4°C 48.7°F9.3°C 99% 0.7 mph NW1.1 kmh NW 1.4 mph2.3 kmh 30.22 in1023.4 mb 0.00 in0.0 mm 0.00 in0.0 mm 0.00 in0.0 mm
01:59 AM 48.8°F9.3°C 48.5°F9.2°C 99% Calm Calm -- 30.22 in1023.4 mb 0.00 in0.0 mm 0.00 in0.0 mm 0.00 in0.0 mm
02:04 AM 48.6°F9.2°C 48.3°F9.1°C 99% Calm Calm -- 30.22 in1023.4 mb 0.00 in0.0 mm 0.00 in0.0 mm 0.00 in0.0 mm
02:09 AM 48.3°F9.1°C 48.0°F8.9°C 99% Calm Calm -- 30.22 in1023.4 mb 0.00 in0.0 mm 0.00 in0.0 mm 0.00 in0.0 mm
02:14 AM 48.2°F9.0°C 47.9°F8.8°C 99% Calm Calm -- 30.22 in1023.4 mb 0.00 in0.0 mm 0.00 in0.0 mm 0.00 in0.0 mm
02:19 AM 48.2°F9.0°C 47.9°F8.8°C 99% 0.4 mph NW0.6 kmh NW 0.7 mph1.1 kmh 30.22 in1023.4 mb 0.00 in0.0 mm 0.00 in0.0 mm 0.00 in0.0 mm
02:24 AM 48.0°F8.9°C 47.7°F8.7°C 99% 0.7 mph NW1.1 kmh NW 1.4 mph2.3 kmh 30.22 in1023.4 mb 0.00 in0.0 mm 0.00 in0.0 mm 0.00 in0.0 mm
02:29 AM 48.0°F8.9°C 47.7°F8.7°C 99% 0.1 mph NW0.2 kmh NW 0.6 mph1.0 kmh 30.22 in1023.4 mb 0.00 in0.0 mm 0.00 in0.0 mm 0.00 in0.0 mm
02:34 AM 48.0°F8.9°C 47.7°F8.7°C 99% 0.2 mph NW0.3 kmh NW 0.6 mph1.0 kmh 30.22 in1023.4 mb 0.00 in0.0 mm 0.00 in0.0 mm 0.00 in0.0 mm
02:39 AM 47.8°F8.8°C 47.5°F8.6°C 99% 0.6 mph NW1.0 kmh NW 1.0 mph1.6 kmh 30.22 in1023.4 mb 0.00 in0.0 mm 0.00 in0.0 mm 0.00 in0.0 mm
02:44 AM 47.6°F8.7°C 47.3°F8.5°C 99% 0.4 mph NW0.6 kmh NW 1.2 mph1.9 kmh 30.22 in1023.4 mb 0.00 in0.0 mm 0.00 in0.0 mm 0.00 in0.0 mm
02:49 AM 47.5°F8.6°C 47.2°F8.4°C 99% 0.4 mph NW0.6 kmh NW 0.9 mph1.4 kmh 30.22 in1023.4 mb 0.00 in0.0 mm 0.00 in0.0 mm 0.00 in0.0 mm
02:54 AM 47.5°F8.6°C 47.2°F8.4°C 99% 0.8 mph NW1.3 kmh NW 1.2 mph1.9 kmh 30.22 in1023.4 mb 0.00 in0.0 mm 0.00 in0.0 mm 0.00 in0.0 mm
02:59 AM 47.7°F8.7°C 47.4°F8.6°C 99% 1.0 mph NW1.6 kmh NW 1.4 mph2.3 kmh 30.22 in1023.4 mb 0.00 in0.0 mm 0.00 in0.0 mm 0.00 in0.0 mm
03:04 AM 47.6°F8.7°C 47.3°F8.5°C 99% 1.1 mph NW1.8 kmh NW 1.4 mph2.3 kmh 30.22 in1023.4 mb 0.00 in0.0 mm 0.00 in0.0 mm 0.00 in0.0 mm
03:09 AM 47.3°F8.5°C 47.0°F8.3°C 99% 0.8 mph NW1.3 kmh NW 1.3 mph2.1 kmh 30.22 in1023.4 mb 0.00 in0.0 mm 0.00 in0.0 mm 0.00 in0.0 mm
03:14 AM 47.2°F8.4°C 46.9°F8.3°C 99% 0.6 mph NW1.0 kmh NW 1.1 mph1.8 kmh 30.22 in1023.4 mb 0.00 in0.0 mm 0.00 in0.0 mm 0.00 in0.0 mm
03:19 AM 47.2°F8.4°C 46.9°F8.3°C 99% 0.3 mph NW0.5 kmh NW 0.7 mph1.1 kmh 30.22 in1023.4 mb 0.00 in0.0 mm 0.00 in0.0 mm 0.00 in0.0 mm
03:24 AM 47.1°F8.4°C 46.8°F8.2°C 99% Calm Calm -- 30.22 in1023.4 mb 0.00 in0.0 mm 0.00 in0.0 mm 0.00 in0.0 mm
03:29 AM 46.9°F8.3°C 46.6°F8.1°C 99% Calm Calm -- 30.22 in1023.4 mb 0.00 in0.0 mm 0.00 in0.0 mm 0.00 in0.0 mm
03:34 AM 46.7°F8.2°C 46.4°F8.0°C 99% Calm Calm -- 30.22 in1023.4 mb 0.00 in0.0 mm 0.00 in0.0 mm 0.00 in0.0 mm
03:39 AM 47.0°F8.3°C 46.7°F8.2°C 99% Calm Calm -- 30.22 in1023.4 mb 0.00 in0.0 mm 0.00 in0.0 mm 0.00 in0.0 mm
03:44 AM 47.2°F8.4°C 46.9°F8.3°C 99% 0.3 mph NW0.5 kmh NW 0.4 mph0.6 kmh 30.22 in1023.4 mb 0.00 in0.0 mm 0.00 in0.0 mm 0.00 in0.0 mm
03:49 AM 47.2°F8.4°C 47.2°F8.4°C 100% 0.5 mph NW0.8 kmh NW 0.9 mph1.4 kmh 30.22 in1023.4 mb 0.00 in0.0 mm 0.00 in0.0 mm 0.00 in0.0 mm
03:54 AM 47.2°F8.4°C 47.2°F8.4°C 100% Calm Calm -- 30.22 in1023.4 mb 0.00 in0.0 mm 0.00 in0.0 mm 0.00 in0.0 mm
03:59 AM 47.2°F8.4°C 47.2°F8.4°C 100% 0.3 mph NW0.5 kmh NW 0.8 mph1.3 kmh 30.22 in1023.4 mb 0.00 in0.0 mm 0.00 in0.0 mm 0.00 in0.0 mm
04:04 AM 47.2°F8.4°C 47.2°F8.4°C 100% 1.5 mph NW2.4 kmh NW 1.8 mph2.9 kmh 30.22 in1023.4 mb 0.00 in0.0 mm 0.00 in0.0 mm 0.00 in0.0 mm
04:09 AM 46.8°F8.2°C 46.8°F8.2°C 100% 0.1 mph NW0.2 kmh NW 0.6 mph1.0 kmh 30.22 in1023.4 mb 0.00 in0.0 mm 0.00 in0.0 mm 0.00 in0.0 mm
04:14 AM 46.6°F8.1°C 46.6°F8.1°C 100% 1.0 mph NW1.6 kmh NW 1.4 mph2.3 kmh 30.22 in1023.4 mb 0.00 in0.0 mm 0.00 in0.0 mm 0.00 in0.0 mm
04:19 AM 46.5°F8.1°C 46.5°F8.1°C 100% 0.2 mph NW0.3 kmh NW 1.1 mph1.8 kmh 30.22 in1023.4 mb 0.00 in0.0 mm 0.00 in0.0 mm 0.00 in0.0 mm
04:24 AM 46.3°F7.9°C 46.3°F7.9°C 100% 0.1 mph NW0.2 kmh NW 0.8 mph1.3 kmh 30.23 in1023.7 mb 0.00 in0.0 mm 0.00 in0.0 mm 0.00 in0.0 mm
04:29 AM 46.2°F7.9°C 45.9°F7.7°C 99% 0.5 mph NW0.8 kmh NW 1.2 mph1.9 kmh 30.23 in1023.7 mb 0.00 in0.0 mm 0.00 in0.0 mm 0.00 in0.0 mm
04:34 AM 46.1°F7.8°C 46.1°F7.8°C 100% 1.2 mph NW1.9 kmh NW 1.4 mph2.3 kmh 30.23 in1023.7 mb 0.00 in0.0 mm 0.00 in0.0 mm 0.00 in0.0 mm
04:39 AM 46.0°F7.8°C 46.0°F7.8°C 100% 1.1 mph NW1.8 kmh NW 1.5 mph2.4 kmh 30.23 in1023.7 mb 0.00 in0.0 mm 0.00 in0.0 mm 0.00 in0.0 mm
04:44 AM 46.0°F7.8°C 45.7°F7.6°C 99% 1.0 mph NNW1.6 kmh NNW 1.5 mph2.4 kmh 30.23 in1023.7 mb 0.00 in0.0 mm 0.00 in0.0 mm 0.00 in0.0 mm
04:49 AM 46.1°F7.8°C 46.1°F7.8°C 100% 0.6 mph NNW1.0 kmh NNW 0.9 mph1.4 kmh 30.23 in1023.7 mb 0.00 in0.0 mm 0.00 in0.0 mm 0.00 in0.0 mm
04:54 AM 46.1°F7.8°C 46.1°F7.8°C 100% 0.6 mph NNW1.0 kmh NNW 1.5 mph2.4 kmh 30.22 in1023.4 mb 0.00 in0.0 mm 0.00 in0.0 mm 0.00 in0.0 mm
04:59 AM 46.1°F7.8°C 46.1°F7.8°C 100% 0.8 mph NNW1.3 kmh NNW 1.4 mph2.3 kmh 30.22 in1023.4 mb 0.00 in0.0 mm 0.00 in0.0 mm 0.00 in0.0 mm
05:04 AM 46.0°F7.8°C 45.7°F7.6°C 99% 0.9 mph NNW1.4 kmh NNW 1.3 mph2.1 kmh 30.23 in1023.7 mb 0.00 in0.0 mm 0.00 in0.0 mm 0.00 in0.0 mm
05:09 AM 45.9°F7.7°C 45.6°F7.6°C 99% 1.0 mph NNW1.6 kmh NNW 1.5 mph2.4 kmh 30.23 in1023.7 mb 0.00 in0.0 mm 0.00 in0.0 mm 0.00 in0.0 mm
05:14 AM 45.7°F7.6°C 45.7°F7.6°C 100% 1.2 mph NNW1.9 kmh NNW 1.6 mph2.6 kmh 30.23 in1023.7 mb 0.00 in0.0 mm 0.00 in0.0 mm 0.00 in0.0 mm
05:19 AM 45.7°F7.6°C 45.7°F7.6°C 100% 1.6 mph NNW2.6 kmh NNW 1.9 mph3.1 kmh 30.23 in1023.7 mb 0.00 in0.0 mm 0.00 in0.0 mm 0.00 in0.0 mm
05:24 AM 45.6°F7.6°C 45.6°F7.6°C 100% 1.6 mph NNW2.6 kmh NNW 1.9 mph3.1 kmh 30.23 in1023.7 mb 0.00 in0.0 mm 0.00 in0.0 mm 0.00 in0.0 mm
05:29 AM 45.6°F7.6°C 45.6°F7.6°C 100% 1.4 mph NNW2.3 kmh NNW 1.7 mph2.7 kmh 30.24 in1024.0 mb 0.00 in0.0 mm 0.00 in0.0 mm 0.00 in0.0 mm
05:34 AM 45.6°F7.6°C 45.6°F7.6°C 100% 0.9 mph NNW1.4 kmh NNW 1.3 mph2.1 kmh 30.24 in1024.0 mb 0.00 in0.0 mm 0.00 in0.0 mm 0.00 in0.0 mm
05:39 AM 45.7°F7.6°C 45.7°F7.6°C 100% 1.5 mph NNW2.4 kmh NNW 2.1 mph3.4 kmh 30.24 in1024.0 mb 0.00 in0.0 mm 0.00 in0.0 mm 0.00 in0.0 mm
05:44 AM 46.0°F7.8°C 46.0°F7.8°C 100% 0.4 mph NNW0.6 kmh NNW 0.5 mph0.8 kmh 30.24 in1024.0 mb 0.00 in0.0 mm 0.00 in0.0 mm 0.00 in0.0 mm
05:49 AM 46.3°F7.9°C 46.3°F7.9°C 100% 2.1 mph NNW3.4 kmh NNW 2.7 mph4.3 kmh 30.24 in1024.0 mb 0.00 in0.0 mm 0.00 in0.0 mm 0.00 in0.0 mm
05:54 AM 46.7°F8.2°C 46.4°F8.0°C 99% 2.2 mph NNW3.5 kmh NNW 2.6 mph4.2 kmh 30.24 in1024.0 mb 0.00 in0.0 mm 0.00 in0.0 mm 0.00 in0.0 mm
05:59 AM 47.0°F8.3°C 47.0°F8.3°C 100% 1.8 mph NNW2.9 kmh NNW 2.0 mph3.2 kmh 30.24 in1024.0 mb 0.00 in0.0 mm 0.00 in0.0 mm 0.00 in0.0 mm
06:04 AM 47.0°F8.3°C 47.0°F8.3°C 100% 1.0 mph NNW1.6 kmh NNW 1.6 mph2.6 kmh 30.24 in1024.0 mb 0.00 in0.0 mm 0.00 in0.0 mm 0.00 in0.0 mm
06:09 AM 47.1°F8.4°C 47.1°F8.4°C 100% Calm Calm -- 30.24 in1024.0 mb 0.00 in0.0 mm 0.00 in0.0 mm 0.00 in0.0 mm
06:14 AM 47.6°F8.7°C 47.6°F8.7°C 100% 0.8 mph NNW1.3 kmh NNW 1.3 mph2.1 kmh 30.24 in1024.0 mb 0.00 in0.0 mm 0.00 in0.0 mm 0.00 in0.0 mm
06:19 AM 49.0°F9.4°C 49.0°F9.4°C 100% 1.5 mph NNW2.4 kmh NNW 1.8 mph2.9 kmh 30.25 in1024.4 mb 0.00 in0.0 mm 0.00 in0.0 mm 0.00 in0.0 mm
06:24 AM 50.2°F10.1°C 50.2°F10.1°C 100% 1.8 mph NNW2.9 kmh NNW 2.3 mph3.7 kmh 30.25 in1024.4 mb 0.00 in0.0 mm 0.00 in0.0 mm 0.00 in0.0 mm
06:29 AM 51.0°F10.6°C 51.0°F10.6°C 100% 1.3 mph NNW2.1 kmh NNW 1.9 mph3.1 kmh 30.25 in1024.4 mb 0.00 in0.0 mm 0.00 in0.0 mm 0.00 in0.0 mm
06:34 AM 51.4°F10.8°C 51.4°F10.8°C 100% 1.6 mph NNW2.6 kmh NNW 2.2 mph3.5 kmh 30.25 in1024.4 mb 0.00 in0.0 mm 0.00 in0.0 mm 0.00 in0.0 mm
06:39 AM 52.0°F11.1°C 51.7°F10.9°C 99% 2.0 mph NNW3.2 kmh NNW 2.4 mph3.9 kmh 30.26 in1024.7 mb 0.00 in0.0 mm 0.00 in0.0 mm 0.00 in0.0 mm
06:44 AM 52.8°F11.6°C 52.8°F11.6°C 100% 1.6 mph NNW2.6 kmh NNW 2.1 mph3.4 kmh 30.26 in1024.7 mb 0.00 in0.0 mm 0.00 in0.0 mm 0.00 in0.0 mm
06:49 AM 53.3°F11.8°C 53.3°F11.8°C 100% 1.1 mph NNW1.8 kmh NNW 1.6 mph2.6 kmh 30.26 in1024.7 mb 0.00 in0.0 mm 0.00 in0.0 mm 0.00 in0.0 mm
06:54 AM 53.9°F12.2°C 53.6°F12.0°C 99% 0.6 mph NNW1.0 kmh NNW 1.3 mph2.1 kmh 30.26 in1024.7 mb 0.00 in0.0 mm 0.00 in0.0 mm 0.00 in0.0 mm
06:59 AM 54.8°F12.7°C 54.5°F12.5°C 99% 1.1 mph NNW1.8 kmh NNW 1.7 mph2.7 kmh 30.26 in1024.7 mb 0.00 in0.0 mm 0.00 in0.0 mm 0.00 in0.0 mm
07:04 AM 55.6°F13.1°C 55.3°F12.9°C 99% 0.8 mph NNW1.3 kmh NNW 1.3 mph2.1 kmh 30.26 in1024.7 mb 0.00 in0.0 mm 0.00 in0.0 mm 0.00 in0.0 mm
07:09 AM 56.4°F13.6°C 56.1°F13.4°C 99% 1.1 mph NNW1.8 kmh NNW 1.7 mph2.7 kmh 30.26 in1024.7 mb 0.00 in0.0 mm 0.00 in0.0 mm 0.00 in0.0 mm
07:14 AM 57.1°F13.9°C 57.1°F13.9°C 100% 1.8 mph NNE2.9 kmh NNE 2.6 mph4.2 kmh 30.27 in1025.1 mb 0.00 in0.0 mm 0.00 in0.0 mm 0.00 in0.0 mm
07:19 AM 57.7°F14.3°C 57.7°F14.3°C 100% 1.3 mph NNE2.1 kmh NNE 2.1 mph3.4 kmh 30.27 in1025.1 mb 0.00 in0.0 mm 0.00 in0.0 mm 0.00 in0.0 mm
07:24 AM 58.3°F14.6°C 58.0°F14.4°C 99% 0.1 mph NNW0.2 kmh NNW 0.9 mph1.4 kmh 30.27 in1025.1 mb 0.00 in0.0 mm 0.00 in0.0 mm 0.00 in0.0 mm
07:29 AM 59.1°F15.1°C 59.1°F15.1°C 100% Calm Calm -- 30.27 in1025.1 mb 0.00 in0.0 mm 0.00 in0.0 mm 0.00 in0.0 mm
07:34 AM 59.6°F15.3°C 59.3°F15.2°C 99% Calm Calm -- 30.27 in1025.1 mb 0.00 in0.0 mm 0.00 in0.0 mm 0.00 in0.0 mm
07:39 AM 59.7°F15.4°C 59.7°F15.4°C 100% 1.3 mph ENE2.1 kmh ENE 2.1 mph3.4 kmh 30.27 in1025.1 mb 0.00 in0.0 mm 0.00 in0.0 mm 0.00 in0.0 mm
07:44 AM 60.3°F15.7°C 60.3°F15.7°C 100% 0.4 mph ENE0.6 kmh ENE 0.9 mph1.4 kmh 30.26 in1024.7 mb 0.00 in0.0 mm 0.00 in0.0 mm 0.00 in0.0 mm
07:49 AM 61.1°F16.2°C 61.1°F16.2°C 100% 0.8 mph ENE1.3 kmh ENE 1.8 mph2.9 kmh 30.27 in1025.1 mb 0.00 in0.0 mm 0.00 in0.0 mm 0.00 in0.0 mm
07:54 AM 61.4°F16.3°C 61.1°F16.2°C 99% 1.5 mph ENE2.4 kmh ENE 2.6 mph4.2 kmh 30.26 in1024.7 mb 0.00 in0.0 mm 0.00 in0.0 mm 0.00 in0.0 mm
07:59 AM 61.2°F16.2°C 60.6°F15.9°C 98% 2.3 mph ENE3.7 kmh ENE 3.6 mph5.8 kmh 30.26 in1024.7 mb 0.00 in0.0 mm 0.00 in0.0 mm 0.00 in0.0 mm
08:04 AM 61.2°F16.2°C 60.6°F15.9°C 98% 1.1 mph ENE1.8 kmh ENE 2.5 mph4.0 kmh 30.26 in1024.7 mb 0.00 in0.0 mm 0.00 in0.0 mm 0.00 in0.0 mm
08:09 AM 62.0°F16.7°C 61.1°F16.2°C 97% 0.6 mph NNE1.0 kmh NNE 2.3 mph3.7 kmh 30.26 in1024.7 mb 0.00 in0.0 mm 0.00 in0.0 mm 0.00 in0.0 mm
08:14 AM 62.9°F17.2°C 62.3°F16.8°C 98% 1.1 mph NE1.8 kmh NE 2.3 mph3.7 kmh 30.26 in1024.7 mb 0.00 in0.0 mm 0.00 in0.0 mm 0.00 in0.0 mm
08:19 AM 63.7°F17.6°C 62.5°F16.9°C 96% 3.0 mph N4.8 kmh N 4.5 mph7.2 kmh 30.26 in1024.7 mb 0.00 in0.0 mm 0.00 in0.0 mm 0.00 in0.0 mm
08:24 AM 64.6°F18.1°C 62.5°F16.9°C 93% 2.1 mph NNE3.4 kmh NNE 3.6 mph5.8 kmh 30.26 in1024.7 mb 0.00 in0.0 mm 0.00 in0.0 mm 0.00 in0.0 mm
08:29 AM 65.4°F18.6°C 63.0°F17.2°C 92% 2.2 mph NNE3.5 kmh NNE 3.4 mph5.5 kmh 30.26 in1024.7 mb 0.00 in0.0 mm 0.00 in0.0 mm 0.00 in0.0 mm
08:34 AM 65.7°F18.7°C 63.0°F17.2°C 91% 2.2 mph N3.5 kmh N 3.9 mph6.3 kmh 30.26 in1024.7 mb 0.00 in0.0 mm 0.00 in0.0 mm 0.00 in0.0 mm
08:39 AM 66.4°F19.1°C 62.7°F17.1°C 88% 3.3 mph NNW5.3 kmh NNW 4.3 mph6.9 kmh 30.26 in1024.7 mb 0.00 in0.0 mm 0.00 in0.0 mm 0.00 in0.0 mm
08:44 AM 67.4°F19.7°C 62.1°F16.7°C 83% 2.9 mph N4.7 kmh N 4.1 mph6.6 kmh 30.26 in1024.7 mb 0.00 in0.0 mm 0.00 in0.0 mm 0.00 in0.0 mm
08:49 AM 67.9°F19.9°C 61.8°F16.6°C 81% 2.7 mph NNE4.3 kmh NNE 4.0 mph6.4 kmh 30.26 in1024.7 mb 0.00 in0.0 mm 0.00 in0.0 mm 0.00 in0.0 mm
08:54 AM 67.7°F19.8°C 61.7°F16.5°C 81% 2.3 mph ENE3.7 kmh ENE 4.3 mph6.9 kmh 30.26 in1024.7 mb 0.00 in0.0 mm 0.00 in0.0 mm 0.00 in0.0 mm
08:59 AM 67.6°F19.8°C 61.9°F16.6°C 82% 2.2 mph E3.5 kmh E 4.0 mph6.4 kmh 30.26 in1024.7 mb 0.00 in0.0 mm 0.00 in0.0 mm 0.00 in0.0 mm
09:04 AM 68.0°F20.0°C 62.6°F17.0°C 83% 1.8 mph ENE2.9 kmh ENE 3.5 mph5.6 kmh 30.25 in1024.4 mb 0.00 in0.0 mm 0.00 in0.0 mm 0.00 in0.0 mm
09:09 AM 68.9°F20.5°C 63.2°F17.3°C 82% 1.6 mph NNW2.6 kmh NNW 3.1 mph5.0 kmh 30.25 in1024.4 mb 0.00 in0.0 mm 0.00 in0.0 mm 0.00 in0.0 mm
09:14 AM 69.9°F21.1°C 63.1°F17.3°C 79% 2.0 mph N3.2 kmh N 3.1 mph5.0 kmh 30.25 in1024.4 mb 0.00 in0.0 mm 0.00 in0.0 mm 0.00 in0.0 mm
09:19 AM 71.2°F21.8°C 63.6°F17.6°C 77% 0.8 mph SSW1.3 kmh SSW 1.9 mph3.1 kmh 30.25 in1024.4 mb 0.00 in0.0 mm 0.00 in0.0 mm 0.00 in0.0 mm
09:24 AM 72.0°F22.2°C 64.4°F18.0°C 77% 1.3 mph ESE2.1 kmh ESE 2.5 mph4.0 kmh 30.25 in1024.4 mb 0.00 in0.0 mm 0.00 in0.0 mm 0.00 in0.0 mm
09:29 AM 72.2°F22.3°C 63.8°F17.7°C 75% 0.9 mph WSW1.4 kmh WSW 2.6 mph4.2 kmh 30.25 in1024.4 mb 0.00 in0.0 mm 0.00 in0.0 mm 0.00 in0.0 mm
09:34 AM 72.6°F22.6°C 63.8°F17.7°C 74% 3.3 mph SSW5.3 kmh SSW 4.4 mph7.1 kmh 30.25 in1024.4 mb 0.00 in0.0 mm 0.00 in0.0 mm 0.00 in0.0 mm
09:39 AM 72.2°F22.3°C 62.3°F16.8°C 71% 2.5 mph SSW4.0 kmh SSW 4.4 mph7.1 kmh 30.25 in1024.4 mb 0.00 in0.0 mm 0.00 in0.0 mm 0.00 in0.0 mm
09:44 AM 71.9°F22.2°C 61.2°F16.2°C 69% 3.8 mph S6.1 kmh S 5.5 mph8.9 kmh 30.25 in1024.4 mb 0.00 in0.0 mm 0.00 in0.0 mm 0.00 in0.0 mm
09:49 AM 71.8°F22.1°C 60.2°F15.7°C 67% 4.0 mph SSW6.4 kmh SSW 5.5 mph8.9 kmh 30.25 in1024.4 mb 0.00 in0.0 mm 0.00 in0.0 mm 0.00 in0.0 mm
09:54 AM 71.4°F21.9°C 60.3°F15.7°C 68% 2.6 mph S4.2 kmh S 3.4 mph5.5 kmh 30.26 in1024.7 mb 0.00 in0.0 mm 0.00 in0.0 mm 0.00 in0.0 mm
09:59 AM 71.5°F21.9°C 60.4°F15.8°C 68% 2.9 mph SSE4.7 kmh SSE 3.8 mph6.1 kmh 30.26 in1024.7 mb 0.00 in0.0 mm 0.00 in0.0 mm 0.00 in0.0 mm
10:04 AM 72.1°F22.3°C 60.5°F15.8°C 67% 2.6 mph S4.2 kmh S 3.8 mph6.1 kmh 30.25 in1024.4 mb 0.00 in0.0 mm 0.00 in0.0 mm 0.00 in0.0 mm
10:09 AM 72.3°F22.4°C 60.3°F15.7°C 66% 2.6 mph SSE4.2 kmh SSE 4.0 mph6.4 kmh 30.25 in1024.4 mb 0.00 in0.0 mm 0.00 in0.0 mm 0.00 in0.0 mm
10:14 AM 72.4°F22.4°C 60.4°F15.8°C 66% 3.2 mph SSW5.1 kmh SSW 4.6 mph7.4 kmh 30.25 in1024.4 mb 0.00 in0.0 mm 0.00 in0.0 mm 0.00 in0.0 mm
10:19 AM 72.5°F22.5°C 60.5°F15.8°C 66% 2.8 mph S4.5 kmh S 3.6 mph5.8 kmh 30.25 in1024.4 mb 0.00 in0.0 mm 0.00 in0.0 mm 0.00 in0.0 mm
10:24 AM 73.0°F22.8°C 60.5°F15.8°C 65% 2.9 mph S4.7 kmh S 3.9 mph6.3 kmh 30.25 in1024.4 mb 0.00 in0.0 mm 0.00 in0.0 mm 0.00 in0.0 mm
10:29 AM 73.4°F23.0°C 60.5°F15.8°C 64% 3.0 mph S4.8 kmh S 4.1 mph6.6 kmh 30.25 in1024.4 mb 0.00 in0.0 mm 0.00 in0.0 mm 0.00 in0.0 mm
10:34 AM 73.2°F22.9°C 59.8°F15.4°C 63% 3.6 mph S5.8 kmh S 5.0 mph8.0 kmh 30.25 in1024.4 mb 0.00 in0.0 mm 0.00 in0.0 mm 0.00 in0.0 mm
10:39 AM 73.0°F22.8°C 58.7°F14.8°C 61% 3.5 mph S5.6 kmh S 4.8 mph7.7 kmh 30.25 in1024.4 mb 0.00 in0.0 mm 0.00 in0.0 mm 0.00 in0.0 mm
10:44 AM 73.3°F22.9°C 59.0°F15.0°C 61% 3.1 mph S5.0 kmh S 4.9 mph7.9 kmh 30.25 in1024.4 mb 0.00 in0.0 mm 0.00 in0.0 mm 0.00 in0.0 mm
10:49 AM 74.0°F23.3°C 59.2°F15.1°C 60% 3.1 mph SSW5.0 kmh SSW 4.7 mph7.6 kmh 30.25 in1024.4 mb 0.00 in0.0 mm 0.00 in0.0 mm 0.00 in0.0 mm
10:54 AM 74.4°F23.6°C 59.1°F15.1°C 59% 3.8 mph S6.1 kmh S 5.8 mph9.3 kmh 30.25 in1024.4 mb 0.00 in0.0 mm 0.00 in0.0 mm 0.00 in0.0 mm
10:59 AM 74.5°F23.6°C 58.7°F14.8°C 58% 5.9 mph SSW9.5 kmh SSW 7.6 mph12.2 kmh 30.24 in1024.0 mb 0.00 in0.0 mm 0.00 in0.0 mm 0.00 in0.0 mm
11:04 AM 74.4°F23.6°C 58.2°F14.6°C 57% 6.4 mph SSW10.3 kmh SSW 7.6 mph12.2 kmh 30.24 in1024.0 mb 0.00 in0.0 mm 0.00 in0.0 mm 0.00 in0.0 mm
11:09 AM 74.1°F23.4°C 56.9°F13.8°C 55% 6.1 mph SSW9.8 kmh SSW 7.4 mph11.9 kmh 30.24 in1024.0 mb 0.00 in0.0 mm 0.00 in0.0 mm 0.00 in0.0 mm
11:14 AM 74.0°F23.3°C 56.3°F13.5°C 54% 5.8 mph SSW9.3 kmh SSW 7.3 mph11.7 kmh 30.24 in1024.0 mb 0.00 in0.0 mm 0.00 in0.0 mm 0.00 in0.0 mm
11:19 AM 74.1°F23.4°C 54.3°F12.4°C 50% 6.3 mph SSW10.1 kmh SSW 8.0 mph12.9 kmh 30.24 in1024.0 mb 0.00 in0.0 mm 0.00 in0.0 mm 0.00 in0.0 mm
11:24 AM 74.2°F23.4°C 52.7°F11.5°C 47% 6.3 mph SSW10.1 kmh SSW 7.9 mph12.7 kmh 30.24 in1024.0 mb 0.00 in0.0 mm 0.00 in0.0 mm 0.00 in0.0 mm
11:29 AM 74.2°F23.4°C 52.1°F11.2°C 46% 6.1 mph SSW9.8 kmh SSW 7.6 mph12.2 kmh 30.24 in1024.0 mb 0.00 in0.0 mm 0.00 in0.0 mm 0.00 in0.0 mm
11:34 AM 74.5°F23.6°C 51.1°F10.6°C 44% 5.4 mph SSW8.7 kmh SSW 6.7 mph10.8 kmh 30.24 in1024.0 mb 0.00 in0.0 mm 0.00 in0.0 mm 0.00 in0.0 mm
11:39 AM 74.7°F23.7°C 51.9°F11.1°C 45% 5.2 mph SSE8.4 kmh SSE 7.0 mph11.3 kmh 30.24 in1024.0 mb 0.00 in0.0 mm 0.00 in0.0 mm 0.00 in0.0 mm
11:44 AM 75.1°F23.9°C 53.5°F11.9°C 47% 3.6 mph S5.8 kmh S 5.3 mph8.5 kmh 30.24 in1024.0 mb 0.00 in0.0 mm 0.00 in0.0 mm 0.00 in0.0 mm
11:49 AM 75.5°F24.2°C 54.4°F12.4°C 48% 5.2 mph S8.4 kmh S 7.5 mph12.1 kmh 30.23 in1023.7 mb 0.00 in0.0 mm 0.00 in0.0 mm 0.00 in0.0 mm
11:54 AM 75.7°F24.3°C 54.0°F12.2°C 47% 4.5 mph S7.2 kmh S 5.9 mph9.5 kmh 30.24 in1024.0 mb 0.00 in0.0 mm 0.00 in0.0 mm 0.00 in0.0 mm
11:59 AM 75.7°F24.3°C 53.4°F11.9°C 46% 5.0 mph S8.0 kmh S 6.8 mph10.9 kmh 30.23 in1023.7 mb 0.00 in0.0 mm 0.00 in0.0 mm 0.00 in0.0 mm
12:04 PM 75.7°F24.3°C 54.6°F12.6°C 48% 4.1 mph S6.6 kmh S 5.6 mph9.0 kmh 30.23 in1023.7 mb 0.00 in0.0 mm 0.00 in0.0 mm 0.00 in0.0 mm
12:09 PM 75.7°F24.3°C 55.2°F12.9°C 49% 5.1 mph SSW8.2 kmh SSW 6.9 mph11.1 kmh 30.23 in1023.7 mb 0.00 in0.0 mm 0.00 in0.0 mm 0.00 in0.0 mm
12:14 PM 76.0°F24.4°C 54.3°F12.4°C 47% 4.5 mph S7.2 kmh S 6.5 mph10.5 kmh 30.23 in1023.7 mb 0.00 in0.0 mm 0.00 in0.0 mm 0.00 in0.0 mm
12:19 PM 76.2°F24.6°C 55.6°F13.1°C 49% 3.5 mph SSE5.6 kmh SSE 6.3 mph10.1 kmh 30.23 in1023.7 mb 0.00 in0.0 mm 0.00 in0.0 mm 0.00 in0.0 mm
12:24 PM 76.2°F24.6°C 55.1°F12.8°C 48% 5.8 mph S9.3 kmh S 7.4 mph11.9 kmh 30.23 in1023.7 mb 0.00 in0.0 mm 0.00 in0.0 mm 0.00 in0.0 mm
12:29 PM 76.2°F24.6°C 55.1°F12.8°C 48% 4.8 mph SSW7.7 kmh SSW 6.7 mph10.8 kmh 30.22 in1023.4 mb 0.00 in0.0 mm 0.00 in0.0 mm 0.00 in0.0 mm
12:34 PM 76.2°F24.6°C 54.5°F12.5°C 47% 5.8 mph SSW9.3 kmh SSW 7.7 mph12.4 kmh 30.22 in1023.4 mb 0.00 in0.0 mm 0.00 in0.0 mm 0.00 in0.0 mm
12:39 PM 76.2°F24.6°C 55.1°F12.8°C 48% 6.2 mph SSW10.0 kmh SSW 7.5 mph12.1 kmh 30.22 in1023.4 mb 0.00 in0.0 mm 0.00 in0.0 mm 0.00 in0.0 mm
12:44 PM 76.2°F24.6°C 55.6°F13.1°C 49% 5.3 mph S8.5 kmh S 7.5 mph12.1 kmh 30.22 in1023.4 mb 0.00 in0.0 mm 0.00 in0.0 mm 0.00 in0.0 mm
12:49 PM 76.4°F24.7°C 55.8°F13.2°C 49% 4.9 mph SW7.9 kmh SW 6.9 mph11.1 kmh 30.22 in1023.4 mb 0.00 in0.0 mm 0.00 in0.0 mm 0.00 in0.0 mm
12:54 PM 76.7°F24.8°C 56.1°F13.4°C 49% 6.5 mph SSW10.5 kmh SSW 8.2 mph13.2 kmh 30.22 in1023.4 mb 0.00 in0.0 mm 0.00 in0.0 mm 0.00 in0.0 mm
12:59 PM 76.5°F24.7°C 55.3°F12.9°C 48% 6.6 mph SSW10.6 kmh SSW 8.3 mph13.4 kmh 30.22 in1023.4 mb 0.00 in0.0 mm 0.00 in0.0 mm 0.00 in0.0 mm
01:04 PM 76.3°F24.6°C 55.7°F13.2°C 49% 7.2 mph SSW11.6 kmh SSW 9.3 mph15.0 kmh 30.22 in1023.4 mb 0.00 in0.0 mm 0.00 in0.0 mm 0.00 in0.0 mm
01:09 PM 76.1°F24.5°C 56.1°F13.4°C 50% 4.1 mph SSE6.6 kmh SSE 6.7 mph10.8 kmh 30.22 in1023.4 mb 0.00 in0.0 mm 0.00 in0.0 mm 0.00 in0.0 mm
01:14 PM 75.9°F24.4°C 56.5°F13.6°C 51% 2.7 mph SE4.3 kmh SE 5.1 mph8.2 kmh 30.22 in1023.4 mb 0.00 in0.0 mm 0.00 in0.0 mm 0.00 in0.0 mm
01:19 PM 76.3°F24.6°C 56.8°F13.8°C 51% 4.9 mph SSW7.9 kmh SSW 7.4 mph11.9 kmh 30.21 in1023.0 mb 0.00 in0.0 mm 0.00 in0.0 mm 0.00 in0.0 mm
01:24 PM 77.0°F25.0°C 56.9°F13.8°C 50% 6.4 mph SSW10.3 kmh SSW 9.1 mph14.6 kmh 30.21 in1023.0 mb 0.00 in0.0 mm 0.00 in0.0 mm 0.00 in0.0 mm
01:29 PM 77.0°F25.0°C 56.4°F13.6°C 49% 6.8 mph SW10.9 kmh SW 9.1 mph14.6 kmh 30.21 in1023.0 mb 0.00 in0.0 mm 0.00 in0.0 mm 0.00 in0.0 mm
01:34 PM 77.2°F25.1°C 57.1°F13.9°C 50% 6.7 mph SW10.8 kmh SW 10.4 mph16.7 kmh 30.21 in1023.0 mb 0.00 in0.0 mm 0.00 in0.0 mm 0.00 in0.0 mm
01:39 PM 77.2°F25.1°C 57.1°F13.9°C 50% 8.4 mph SSW13.5 kmh SSW 11.3 mph18.2 kmh 30.21 in1023.0 mb 0.00 in0.0 mm 0.00 in0.0 mm 0.00 in0.0 mm
01:44 PM 77.2°F25.1°C 57.1°F13.9°C 50% 8.3 mph SW13.4 kmh SW 11.0 mph17.7 kmh 30.20 in1022.7 mb 0.00 in0.0 mm 0.00 in0.0 mm 0.00 in0.0 mm
01:49 PM 77.1°F25.1°C 57.6°F14.2°C 51% 6.0 mph SSW9.7 kmh SSW 9.6 mph15.4 kmh 30.20 in1022.7 mb 0.00 in0.0 mm 0.00 in0.0 mm 0.00 in0.0 mm
01:54 PM 77.4°F25.2°C 58.4°F14.7°C 52% 6.2 mph SSW10.0 kmh SSW 9.0 mph14.5 kmh 30.20 in1022.7 mb 0.00 in0.0 mm 0.00 in0.0 mm 0.00 in0.0 mm
01:59 PM 77.5°F25.3°C 57.9°F14.4°C 51% 6.9 mph SW11.1 kmh SW 9.5 mph15.3 kmh 30.20 in1022.7 mb 0.00 in0.0 mm 0.00 in0.0 mm 0.00 in0.0 mm
02:04 PM 77.0°F25.0°C 57.5°F14.2°C 51% 7.3 mph SSW11.7 kmh SSW 10.9 mph17.5 kmh 30.20 in1022.7 mb 0.00 in0.0 mm 0.00 in0.0 mm 0.00 in0.0 mm
02:09 PM 76.7°F24.8°C 56.6°F13.7°C 50% 7.8 mph SSW12.6 kmh SSW 10.1 mph16.3 kmh 30.20 in1022.7 mb 0.00 in0.0 mm 0.00 in0.0 mm 0.00 in0.0 mm
02:14 PM 77.0°F25.0°C 56.9°F13.8°C 50% 9.3 mph SSW15.0 kmh SSW 13.0 mph20.9 kmh 30.20 in1022.7 mb 0.00 in0.0 mm 0.00 in0.0 mm 0.00 in0.0 mm
02:19 PM 77.0°F25.0°C 56.4°F13.6°C 49% 5.1 mph SW8.2 kmh SW 7.7 mph12.4 kmh 30.20 in1022.7 mb 0.00 in0.0 mm 0.00 in0.0 mm 0.00 in0.0 mm
02:24 PM 77.1°F25.1°C 57.0°F13.9°C 50% 6.5 mph WSW10.5 kmh WSW 9.3 mph15.0 kmh 30.20 in1022.7 mb 0.00 in0.0 mm 0.00 in0.0 mm 0.00 in0.0 mm
02:29 PM 77.4°F25.2°C 56.7°F13.7°C 49% 8.7 mph SW14.0 kmh SW 11.5 mph18.5 kmh 30.20 in1022.7 mb 0.00 in0.0 mm 0.00 in0.0 mm 0.00 in0.0 mm
02:34 PM 77.2°F25.1°C 56.5°F13.6°C 49% 5.9 mph WSW9.5 kmh WSW 8.5 mph13.7 kmh 30.20 in1022.7 mb 0.00 in0.0 mm 0.00 in0.0 mm 0.00 in0.0 mm
02:39 PM 77.1°F25.1°C 55.9°F13.3°C 48% 7.9 mph SSW12.7 kmh SSW 11.3 mph18.2 kmh 30.20 in1022.7 mb 0.00 in0.0 mm 0.00 in0.0 mm 0.00 in0.0 mm
02:44 PM 77.1°F25.1°C 55.9°F13.3°C 48% 8.8 mph SW14.2 kmh SW 11.7 mph18.8 kmh 30.20 in1022.7 mb 0.00 in0.0 mm 0.00 in0.0 mm 0.00 in0.0 mm
02:49 PM 76.7°F24.8°C 54.3°F12.4°C 46% 7.8 mph SSW12.6 kmh SSW 10.8 mph17.4 kmh 30.20 in1022.7 mb 0.00 in0.0 mm 0.00 in0.0 mm 0.00 in0.0 mm
02:54 PM 76.8°F24.9°C 55.0°F12.8°C 47% 5.5 mph SW8.9 kmh SW 8.5 mph13.7 kmh 30.20 in1022.7 mb 0.00 in0.0 mm 0.00 in0.0 mm 0.00 in0.0 mm
02:59 PM 77.0°F25.0°C 55.2°F12.9°C 47% 6.9 mph SSW11.1 kmh SSW 10.3 mph16.6 kmh 30.19 in1022.4 mb 0.00 in0.0 mm 0.00 in0.0 mm 0.00 in0.0 mm
03:04 PM 76.9°F24.9°C 54.5°F12.5°C 46% 7.1 mph SW11.4 kmh SW 10.4 mph16.7 kmh 30.19 in1022.4 mb 0.00 in0.0 mm 0.00 in0.0 mm 0.00 in0.0 mm
03:09 PM 76.9°F24.9°C 54.5°F12.5°C 46% 6.5 mph SSW10.5 kmh SSW 9.2 mph14.8 kmh 30.19 in1022.4 mb 0.00 in0.0 mm 0.00 in0.0 mm 0.00 in0.0 mm
03:14 PM 77.1°F25.1°C 54.1°F12.3°C 45% 8.1 mph SSW13.0 kmh SSW 11.1 mph17.9 kmh 30.19 in1022.4 mb 0.00 in0.0 mm 0.00 in0.0 mm 0.00 in0.0 mm
03:19 PM 77.1°F25.1°C 53.5°F11.9°C 44% 8.4 mph SSW13.5 kmh SSW 11.0 mph17.7 kmh 30.19 in1022.4 mb 0.00 in0.0 mm 0.00 in0.0 mm 0.00 in0.0 mm
03:24 PM 77.0°F25.0°C 54.0°F12.2°C 45% 8.9 mph SW14.3 kmh SW 11.8 mph19.0 kmh 30.19 in1022.4 mb 0.00 in0.0 mm 0.00 in0.0 mm 0.00 in0.0 mm
03:29 PM 76.7°F24.8°C 53.1°F11.7°C 44% 7.6 mph SW12.2 kmh SW 10.4 mph16.7 kmh 30.19 in1022.4 mb 0.00 in0.0 mm 0.00 in0.0 mm 0.00 in0.0 mm
03:34 PM 76.2°F24.6°C 53.3°F11.8°C 45% 7.5 mph SSW12.1 kmh SSW 11.5 mph18.5 kmh 30.19 in1022.4 mb 0.00 in0.0 mm 0.00 in0.0 mm 0.00 in0.0 mm
03:39 PM 76.2°F24.6°C 53.3°F11.8°C 45% 6.5 mph SW10.5 kmh SW 9.5 mph15.3 kmh 30.19 in1022.4 mb 0.00 in0.0 mm 0.00 in0.0 mm 0.00 in0.0 mm
03:44 PM 76.2°F24.6°C 53.3°F11.8°C 45% 7.9 mph SSW12.7 kmh SSW 10.1 mph16.3 kmh 30.19 in1022.4 mb 0.00 in0.0 mm 0.00 in0.0 mm 0.00 in0.0 mm
03:49 PM 76.1°F24.5°C 53.2°F11.8°C 45% 7.7 mph SW12.4 kmh SW 10.9 mph17.5 kmh 30.19 in1022.4 mb 0.00 in0.0 mm 0.00 in0.0 mm 0.00 in0.0 mm
03:54 PM 75.9°F24.4°C 52.4°F11.3°C 44% 6.9 mph SW11.1 kmh SW 10.5 mph16.9 kmh 30.19 in1022.4 mb 0.00 in0.0 mm 0.00 in0.0 mm 0.00 in0.0 mm
03:59 PM 75.5°F24.2°C 52.0°F11.1°C 44% 6.0 mph SW9.7 kmh SW 9.5 mph15.3 kmh 30.18 in1022.0 mb 0.00 in0.0 mm 0.00 in0.0 mm 0.00 in0.0 mm
04:04 PM 75.5°F24.2°C 52.0°F11.1°C 44% 5.5 mph SW8.9 kmh SW 8.5 mph13.7 kmh 30.18 in1022.0 mb 0.00 in0.0 mm 0.00 in0.0 mm 0.00 in0.0 mm
04:09 PM 75.5°F24.2°C 52.0°F11.1°C 44% 7.1 mph SSW11.4 kmh SSW 9.8 mph15.8 kmh 30.18 in1022.0 mb 0.00 in0.0 mm 0.00 in0.0 mm 0.00 in0.0 mm
04:14 PM 75.5°F24.2°C 52.7°F11.5°C 45% 5.9 mph SSW9.5 kmh SSW 8.7 mph14.0 kmh 30.18 in1022.0 mb 0.00 in0.0 mm 0.00 in0.0 mm 0.00 in0.0 mm
04:19 PM 75.5°F24.2°C 52.7°F11.5°C 45% 5.7 mph WSW9.2 kmh WSW 9.9 mph15.9 kmh 30.18 in1022.0 mb 0.00 in0.0 mm 0.00 in0.0 mm 0.00 in0.0 mm
04:24 PM 75.3°F24.1°C 51.9°F11.1°C 44% 6.4 mph SW10.3 kmh SW 9.8 mph15.8 kmh 30.18 in1022.0 mb 0.00 in0.0 mm 0.00 in0.0 mm 0.00 in0.0 mm
04:29 PM 74.9°F23.8°C 51.5°F10.8°C 44% 5.5 mph WSW8.9 kmh WSW 8.3 mph13.4 kmh 30.18 in1022.0 mb 0.00 in0.0 mm 0.00 in0.0 mm 0.00 in0.0 mm
04:34 PM 74.9°F23.8°C 51.5°F10.8°C 44% 5.5 mph SSW8.9 kmh SSW 8.2 mph13.2 kmh 30.18 in1022.0 mb 0.00 in0.0 mm 0.00 in0.0 mm 0.00 in0.0 mm
04:39 PM 75.0°F23.9°C 51.6°F10.9°C 44% 7.2 mph SSW11.6 kmh SSW 10.6 mph17.1 kmh 30.18 in1022.0 mb 0.00 in0.0 mm 0.00 in0.0 mm 0.00 in0.0 mm
04:44 PM 74.7°F23.7°C 51.3°F10.7°C 44% 6.7 mph SW10.8 kmh SW 10.6 mph17.1 kmh 30.18 in1022.0 mb 0.00 in0.0 mm 0.00 in0.0 mm 0.00 in0.0 mm
04:49 PM 74.5°F23.6°C 51.7°F10.9°C 45% 7.1 mph SSW11.4 kmh SSW 10.0 mph16.1 kmh 30.18 in1022.0 mb 0.00 in0.0 mm 0.00 in0.0 mm 0.00 in0.0 mm
04:54 PM 74.2°F23.4°C 51.5°F10.8°C 45% 7.2 mph SSW11.6 kmh SSW 9.2 mph14.8 kmh 30.18 in1022.0 mb 0.00 in0.0 mm 0.00 in0.0 mm 0.00 in0.0 mm
04:59 PM 74.0°F23.3°C 51.9°F11.1°C 46% 7.0 mph SSW11.3 kmh SSW 10.4 mph16.7 kmh 30.18 in1022.0 mb 0.00 in0.0 mm 0.00 in0.0 mm 0.00 in0.0 mm
05:04 PM 73.8°F23.2°C 52.9°F11.6°C 48% 5.6 mph SSW9.0 kmh SSW 8.2 mph13.2 kmh 30.18 in1022.0 mb 0.00 in0.0 mm 0.00 in0.0 mm 0.00 in0.0 mm
05:09 PM 73.5°F23.1°C 52.6°F11.4°C 48% 3.8 mph WSW6.1 kmh WSW 6.0 mph9.7 kmh 30.18 in1022.0 mb 0.00 in0.0 mm 0.00 in0.0 mm 0.00 in0.0 mm
05:14 PM 73.5°F23.1°C 53.2°F11.8°C 49% 5.7 mph WSW9.2 kmh WSW 9.8 mph15.8 kmh 30.18 in1022.0 mb 0.00 in0.0 mm 0.00 in0.0 mm 0.00 in0.0 mm
05:19 PM 73.4°F23.0°C 52.5°F11.4°C 48% 5.4 mph SW8.7 kmh SW 8.4 mph13.5 kmh 30.17 in1021.7 mb 0.00 in0.0 mm 0.00 in0.0 mm 0.00 in0.0 mm
05:24 PM 73.2°F22.9°C 52.3°F11.3°C 48% 4.9 mph SW7.9 kmh SW 7.7 mph12.4 kmh 30.17 in1021.7 mb 0.00 in0.0 mm 0.00 in0.0 mm 0.00 in0.0 mm
05:29 PM 73.2°F22.9°C 52.9°F11.6°C 49% 4.3 mph SW6.9 kmh SW 8.4 mph13.5 kmh 30.18 in1022.0 mb 0.00 in0.0 mm 0.00 in0.0 mm 0.00 in0.0 mm
05:34 PM 73.1°F22.8°C 52.8°F11.6°C 49% 4.6 mph SW7.4 kmh SW 6.3 mph10.1 kmh 30.17 in1021.7 mb 0.00 in0.0 mm 0.00 in0.0 mm 0.00 in0.0 mm
05:39 PM 72.7°F22.6°C 52.4°F11.3°C 49% 5.3 mph SW8.5 kmh SW 9.2 mph14.8 kmh 30.18 in1022.0 mb 0.00 in0.0 mm 0.00 in0.0 mm 0.00 in0.0 mm
05:44 PM 72.5°F22.5°C 52.2°F11.2°C 49% 4.6 mph SW7.4 kmh SW 7.6 mph12.2 kmh 30.17 in1021.7 mb 0.00 in0.0 mm 0.00 in0.0 mm 0.00 in0.0 mm
05:49 PM 72.3°F22.4°C 52.6°F11.4°C 50% 5.0 mph WSW8.0 kmh WSW 7.8 mph12.6 kmh 30.17 in1021.7 mb 0.00 in0.0 mm 0.00 in0.0 mm 0.00 in0.0 mm
05:54 PM 72.0°F22.2°C 51.8°F11.0°C 49% 4.0 mph SW6.4 kmh SW 7.5 mph12.1 kmh 30.17 in1021.7 mb 0.00 in0.0 mm 0.00 in0.0 mm 0.00 in0.0 mm
05:59 PM 71.7°F22.1°C 52.1°F11.2°C 50% 7.2 mph SW11.6 kmh SW 12.1 mph19.5 kmh 30.17 in1021.7 mb 0.00 in0.0 mm 0.00 in0.0 mm 0.00 in0.0 mm
06:04 PM 71.3°F21.8°C 51.7°F10.9°C 50% 3.3 mph WSW5.3 kmh WSW 5.5 mph8.9 kmh 30.17 in1021.7 mb 0.00 in0.0 mm 0.00 in0.0 mm 0.00 in0.0 mm
06:09 PM 71.2°F21.8°C 52.1°F11.2°C 51% 5.7 mph SW9.2 kmh SW 8.6 mph13.8 kmh 30.17 in1021.7 mb 0.00 in0.0 mm 0.00 in0.0 mm 0.00 in0.0 mm
06:14 PM 70.9°F21.6°C 51.9°F11.1°C 51% 5.9 mph SW9.5 kmh SW 9.6 mph15.4 kmh 30.17 in1021.7 mb 0.00 in0.0 mm 0.00 in0.0 mm 0.00 in0.0 mm
06:19 PM 70.5°F21.4°C 51.5°F10.8°C 51% 6.7 mph WSW10.8 kmh WSW 10.4 mph16.7 kmh 30.17 in1021.7 mb 0.00 in0.0 mm 0.00 in0.0 mm 0.00 in0.0 mm
06:24 PM 70.0°F21.1°C 51.0°F10.6°C 51% 5.4 mph SW8.7 kmh SW 9.9 mph15.9 kmh 30.16 in1021.3 mb 0.00 in0.0 mm 0.00 in0.0 mm 0.00 in0.0 mm
06:29 PM 69.7°F20.9°C 51.8°F11.0°C 53% 4.7 mph SW7.6 kmh SW 7.6 mph12.2 kmh 30.17 in1021.7 mb 0.00 in0.0 mm 0.00 in0.0 mm 0.00 in0.0 mm
06:34 PM 69.5°F20.8°C 52.1°F11.2°C 54% 5.8 mph SW9.3 kmh SW 9.3 mph15.0 kmh 30.17 in1021.7 mb 0.00 in0.0 mm 0.00 in0.0 mm 0.00 in0.0 mm
06:39 PM 69.1°F20.6°C 52.7°F11.5°C 56% 6.1 mph SW9.8 kmh SW 9.7 mph15.6 kmh 30.17 in1021.7 mb 0.00 in0.0 mm 0.00 in0.0 mm 0.00 in0.0 mm
06:44 PM 68.5°F20.3°C 53.1°F11.7°C 58% 5.8 mph SW9.3 kmh SW 8.8 mph14.2 kmh 30.16 in1021.3 mb 0.00 in0.0 mm 0.00 in0.0 mm 0.00 in0.0 mm
06:49 PM 68.0°F20.0°C 53.1°F11.7°C 59% 5.4 mph SW8.7 kmh SW 9.6 mph15.4 kmh 30.16 in1021.3 mb 0.00 in0.0 mm 0.00 in0.0 mm 0.00 in0.0 mm
06:54 PM 67.7°F19.8°C 52.8°F11.6°C 59% 3.9 mph SW6.3 kmh SW 6.4 mph10.3 kmh 30.16 in1021.3 mb 0.00 in0.0 mm 0.00 in0.0 mm 0.00 in0.0 mm
06:59 PM 67.7°F19.8°C 53.3°F11.8°C 60% 3.6 mph SW5.8 kmh SW 6.2 mph10.0 kmh 30.16 in1021.3 mb 0.00 in0.0 mm 0.00 in0.0 mm 0.00 in0.0 mm
07:04 PM 67.7°F19.8°C 53.3°F11.8°C 60% 4.3 mph SSW6.9 kmh SSW 6.3 mph10.1 kmh 30.16 in1021.3 mb 0.00 in0.0 mm 0.00 in0.0 mm 0.00 in0.0 mm
07:09 PM 67.5°F19.7°C 53.6°F12.0°C 61% 4.0 mph SW6.4 kmh SW 5.8 mph9.3 kmh 30.16 in1021.3 mb 0.00 in0.0 mm 0.00 in0.0 mm 0.00 in0.0 mm
07:14 PM 67.2°F19.6°C 53.7°F12.1°C 62% 3.9 mph SSW6.3 kmh SSW 5.7 mph9.2 kmh 30.16 in1021.3 mb 0.00 in0.0 mm 0.00 in0.0 mm 0.00 in0.0 mm
07:19 PM 66.9°F19.4°C 53.9°F12.2°C 63% 4.1 mph SSW6.6 kmh SSW 6.1 mph9.8 kmh 30.17 in1021.7 mb 0.00 in0.0 mm 0.00 in0.0 mm 0.00 in0.0 mm
07:24 PM 66.4°F19.1°C 54.3°F12.4°C 65% 4.1 mph SSW6.6 kmh SSW 5.4 mph8.7 kmh 30.17 in1021.7 mb 0.00 in0.0 mm 0.00 in0.0 mm 0.00 in0.0 mm
07:29 PM 66.1°F18.9°C 54.4°F12.4°C 66% 3.4 mph SW5.5 kmh SW 4.5 mph7.2 kmh 30.17 in1021.7 mb 0.00 in0.0 mm 0.00 in0.0 mm 0.00 in0.0 mm
07:34 PM 65.8°F18.8°C 54.5°F12.5°C 67% 3.0 mph SSW4.8 kmh SSW 4.6 mph7.4 kmh 30.17 in1021.7 mb 0.00 in0.0 mm 0.00 in0.0 mm 0.00 in0.0 mm
07:39 PM 65.4°F18.6°C 54.6°F12.6°C 68% 3.8 mph SSW6.1 kmh SSW 5.1 mph8.2 kmh 30.17 in1021.7 mb 0.00 in0.0 mm 0.00 in0.0 mm 0.00 in0.0 mm
07:44 PM 65.0°F18.3°C 55.0°F12.8°C 70% 3.9 mph SSW6.3 kmh SSW 5.0 mph8.0 kmh 30.16 in1021.3 mb 0.00 in0.0 mm 0.00 in0.0 mm 0.00 in0.0 mm
07:49 PM 64.7°F18.2°C 54.7°F12.6°C 70% 3.5 mph SW5.6 kmh SW 4.8 mph7.7 kmh 30.16 in1021.3 mb 0.00 in0.0 mm 0.00 in0.0 mm 0.00 in0.0 mm
07:54 PM 64.5°F18.1°C 54.9°F12.7°C 71% 2.3 mph SSW3.7 kmh SSW 3.4 mph5.5 kmh 30.17 in1021.7 mb 0.00 in0.0 mm 0.00 in0.0 mm 0.00 in0.0 mm
07:59 PM 64.2°F17.9°C 55.4°F13.0°C 73% 2.3 mph SW3.7 kmh SW 3.6 mph5.8 kmh 30.17 in1021.7 mb 0.00 in0.0 mm 0.00 in0.0 mm 0.00 in0.0 mm
08:04 PM 63.9°F17.7°C 55.1°F12.8°C 73% 2.1 mph SSW3.4 kmh SSW 3.3 mph5.3 kmh 30.17 in1021.7 mb 0.00 in0.0 mm 0.00 in0.0 mm 0.00 in0.0 mm
08:09 PM 63.6°F17.6°C 55.5°F13.1°C 75% 3.4 mph SW5.5 kmh SW 5.1 mph8.2 kmh 30.16 in1021.3 mb 0.00 in0.0 mm 0.00 in0.0 mm 0.00 in0.0 mm
08:14 PM 63.4°F17.4°C 55.7°F13.2°C 76% 2.6 mph SW4.2 kmh SW 3.8 mph6.1 kmh 30.16 in1021.3 mb 0.00 in0.0 mm 0.00 in0.0 mm 0.00 in0.0 mm
08:19 PM 63.1°F17.3°C 55.8°F13.2°C 77% 3.3 mph SSW5.3 kmh SSW 4.8 mph7.7 kmh 30.16 in1021.3 mb 0.00 in0.0 mm 0.00 in0.0 mm 0.00 in0.0 mm
08:24 PM 62.8°F17.1°C 55.8°F13.2°C 78% 4.2 mph SSW6.8 kmh SSW 5.6 mph9.0 kmh 30.16 in1021.3 mb 0.00 in0.0 mm 0.00 in0.0 mm 0.00 in0.0 mm
08:29 PM 62.6°F17.0°C 55.6°F13.1°C 78% 3.5 mph SSW5.6 kmh SSW 4.9 mph7.9 kmh 30.16 in1021.3 mb 0.00 in0.0 mm 0.00 in0.0 mm 0.00 in0.0 mm
08:34 PM 62.5°F16.9°C 55.5°F13.1°C 78% 4.0 mph SSW6.4 kmh SSW 5.4 mph8.7 kmh 30.16 in1021.3 mb 0.00 in0.0 mm 0.00 in0.0 mm 0.00 in0.0 mm
08:39 PM 62.4°F16.9°C 55.8°F13.2°C 79% 3.3 mph SW5.3 kmh SW 4.6 mph7.4 kmh 30.16 in1021.3 mb 0.00 in0.0 mm 0.00 in0.0 mm 0.00 in0.0 mm
08:44 PM 62.2°F16.8°C 55.6°F13.1°C 79% 2.6 mph SW4.2 kmh SW 3.9 mph6.3 kmh 30.17 in1021.7 mb 0.00 in0.0 mm 0.00 in0.0 mm 0.00 in0.0 mm
08:49 PM 62.1°F16.7°C 55.9°F13.3°C 80% 3.0 mph SSW4.8 kmh SSW 4.4 mph7.1 kmh 30.17 in1021.7 mb 0.00 in0.0 mm 0.00 in0.0 mm 0.00 in0.0 mm
08:54 PM 61.7°F16.5°C 55.5°F13.1°C 80% 3.4 mph SW5.5 kmh SW 4.7 mph7.6 kmh 30.17 in1021.7 mb 0.00 in0.0 mm 0.00 in0.0 mm 0.00 in0.0 mm
08:59 PM 61.6°F16.4°C 55.7°F13.2°C 81% 3.1 mph SSW5.0 kmh SSW 4.3 mph6.9 kmh 30.17 in1021.7 mb 0.00 in0.0 mm 0.00 in0.0 mm 0.00 in0.0 mm
09:04 PM 61.3°F16.3°C 55.4°F13.0°C 81% 2.7 mph SSW4.3 kmh SSW 3.5 mph5.6 kmh 30.17 in1021.7 mb 0.00 in0.0 mm 0.00 in0.0 mm 0.00 in0.0 mm
09:09 PM 61.2°F16.2°C 55.3°F12.9°C 81% 2.8 mph SSW4.5 kmh SSW 4.4 mph7.1 kmh 30.17 in1021.7 mb 0.00 in0.0 mm 0.00 in0.0 mm 0.00 in0.0 mm
09:14 PM 60.9°F16.1°C 55.0°F12.8°C 81% 2.3 mph SSW3.7 kmh SSW 3.2 mph5.1 kmh 30.16 in1021.3 mb 0.00 in0.0 mm 0.00 in0.0 mm 0.00 in0.0 mm
09:19 PM 60.6°F15.9°C 55.4°F13.0°C 83% 1.7 mph SSW2.7 kmh SSW 2.2 mph3.5 kmh 30.16 in1021.3 mb 0.00 in0.0 mm 0.00 in0.0 mm 0.00 in0.0 mm
09:24 PM 60.2°F15.7°C 55.0°F12.8°C 83% 1.8 mph SSW2.9 kmh SSW 2.3 mph3.7 kmh 30.17 in1021.7 mb 0.00 in0.0 mm 0.00 in0.0 mm 0.00 in0.0 mm
09:29 PM 59.9°F15.5°C 55.1°F12.8°C 84% 2.1 mph SSW3.4 kmh SSW 2.7 mph4.3 kmh 30.17 in1021.7 mb 0.00 in0.0 mm 0.00 in0.0 mm 0.00 in0.0 mm
09:34 PM 59.7°F15.4°C 54.9°F12.7°C 84% 1.6 mph SSW2.6 kmh SSW 2.4 mph3.9 kmh 30.17 in1021.7 mb 0.00 in0.0 mm 0.00 in0.0 mm 0.00 in0.0 mm
09:39 PM 59.6°F15.3°C 55.1°F12.8°C 85% 2.1 mph SSW3.4 kmh SSW 2.9 mph4.7 kmh 30.16 in1021.3 mb 0.00 in0.0 mm 0.00 in0.0 mm 0.00 in0.0 mm
09:44 PM 59.3°F15.2°C 55.1°F12.8°C 86% 2.1 mph SSW3.4 kmh SSW 2.7 mph4.3 kmh 30.16 in1021.3 mb 0.00 in0.0 mm 0.00 in0.0 mm 0.00 in0.0 mm
09:49 PM 59.2°F15.1°C 55.0°F12.8°C 86% 1.5 mph SSW2.4 kmh SSW 2.1 mph3.4 kmh 30.16 in1021.3 mb 0.00 in0.0 mm 0.00 in0.0 mm 0.00 in0.0 mm
09:54 PM 59.2°F15.1°C 55.3°F12.9°C 87% 1.2 mph SSW1.9 kmh SSW 1.9 mph3.1 kmh 30.16 in1021.3 mb 0.00 in0.0 mm 0.00 in0.0 mm 0.00 in0.0 mm
09:59 PM 59.2°F15.1°C 55.3°F12.9°C 87% 1.2 mph SSW1.9 kmh SSW 2.1 mph3.4 kmh 30.16 in1021.3 mb 0.00 in0.0 mm 0.00 in0.0 mm 0.00 in0.0 mm
10:04 PM 59.2°F15.1°C 55.3°F12.9°C 87% 0.4 mph SSW0.6 kmh SSW 0.7 mph1.1 kmh 30.16 in1021.3 mb 0.00 in0.0 mm 0.00 in0.0 mm 0.00 in0.0 mm
10:09 PM 59.0°F15.0°C 55.4°F13.0°C 88% 2.2 mph SSW3.5 kmh SSW 2.6 mph4.2 kmh 30.16 in1021.3 mb 0.00 in0.0 mm 0.00 in0.0 mm 0.00 in0.0 mm
10:14 PM 58.8°F14.9°C 55.3°F12.9°C 88% 2.1 mph SSW3.4 kmh SSW 2.8 mph4.5 kmh 30.15 in1021.0 mb 0.00 in0.0 mm 0.00 in0.0 mm 0.00 in0.0 mm
10:19 PM 58.7°F14.8°C 55.5°F13.1°C 89% 0.7 mph SSW1.1 kmh SSW 1.5 mph2.4 kmh 30.15 in1021.0 mb 0.00 in0.0 mm 0.00 in0.0 mm 0.00 in0.0 mm
10:24 PM 58.5°F14.7°C 55.3°F12.9°C 89% 0.9 mph SSW1.4 kmh SSW 1.4 mph2.3 kmh 30.15 in1021.0 mb 0.00 in0.0 mm 0.00 in0.0 mm 0.00 in0.0 mm
10:29 PM 58.4°F14.7°C 55.2°F12.9°C 89% 1.4 mph SSW2.3 kmh SSW 1.9 mph3.1 kmh 30.15 in1021.0 mb 0.00 in0.0 mm 0.00 in0.0 mm 0.00 in0.0 mm
10:34 PM 58.2°F14.6°C 55.3°F12.9°C 90% 1.4 mph SSW2.3 kmh SSW 1.8 mph2.9 kmh 30.15 in1021.0 mb 0.00 in0.0 mm 0.00 in0.0 mm 0.00 in0.0 mm
10:39 PM 58.1°F14.5°C 55.2°F12.9°C 90% 0.8 mph SSW1.3 kmh SSW 1.6 mph2.6 kmh 30.15 in1021.0 mb 0.00 in0.0 mm 0.00 in0.0 mm 0.00 in0.0 mm
10:44 PM 57.9°F14.4°C 55.0°F12.8°C 90% Calm Calm -- 30.14 in1020.7 mb 0.00 in0.0 mm 0.00 in0.0 mm 0.00 in0.0 mm
10:49 PM 57.7°F14.3°C 55.1°F12.8°C 91% Calm Calm -- 30.15 in1021.0 mb 0.00 in0.0 mm 0.00 in0.0 mm 0.00 in0.0 mm
10:54 PM 57.5°F14.2°C 54.9°F12.7°C 91% Calm Calm -- 30.14 in1020.7 mb 0.00 in0.0 mm 0.00 in0.0 mm 0.00 in0.0 mm
10:59 PM 57.2°F14.0°C 54.6°F12.6°C 91% 1.5 mph SSW2.4 kmh SSW 1.9 mph3.1 kmh 30.14 in1020.7 mb 0.00 in0.0 mm 0.00 in0.0 mm 0.00 in0.0 mm
11:04 PM 57.2°F14.0°C 54.9°F12.7°C 92% 0.3 mph SSW0.5 kmh SSW 0.7 mph1.1 kmh 30.14 in1020.7 mb 0.00 in0.0 mm 0.00 in0.0 mm 0.00 in0.0 mm
11:09 PM 57.1°F13.9°C 54.8°F12.7°C 92% 0.3 mph SSW0.5 kmh SSW 1.2 mph1.9 kmh 30.14 in1020.7 mb 0.00 in0.0 mm 0.00 in0.0 mm 0.00 in0.0 mm
11:14 PM 57.0°F13.9°C 54.7°F12.6°C 92% 0.3 mph SSW0.5 kmh SSW 1.3 mph2.1 kmh 30.14 in1020.7 mb 0.00 in0.0 mm 0.00 in0.0 mm 0.00 in0.0 mm
11:19 PM 56.9°F13.8°C 54.3°F12.4°C 91% 1.6 mph SSW2.6 kmh SSW 2.0 mph3.2 kmh 30.14 in1020.7 mb 0.00 in0.0 mm 0.00 in0.0 mm 0.00 in0.0 mm
11:24 PM 56.8°F13.8°C 54.5°F12.5°C 92% 2.0 mph SSW3.2 kmh SSW 2.4 mph3.9 kmh 30.13 in1020.3 mb 0.00 in0.0 mm 0.00 in0.0 mm 0.00 in0.0 mm
11:29 PM 56.7°F13.7°C 54.4°F12.4°C 92% 1.8 mph SSW2.9 kmh SSW 2.1 mph3.4 kmh 30.13 in1020.3 mb 0.00 in0.0 mm 0.00 in0.0 mm 0.00 in0.0 mm
11:34 PM 56.9°F13.8°C 54.9°F12.7°C 93% 2.2 mph SSW3.5 kmh SSW 2.6 mph4.2 kmh 30.13 in1020.3 mb 0.00 in0.0 mm 0.00 in0.0 mm 0.00 in0.0 mm
11:39 PM 57.0°F13.9°C 55.0°F12.8°C 93% 1.8 mph SSW2.9 kmh SSW 2.3 mph3.7 kmh 30.13 in1020.3 mb 0.00 in0.0 mm 0.00 in0.0 mm 0.00 in0.0 mm
11:44 PM 57.0°F13.9°C 55.0°F12.8°C 93% 0.7 mph SSW1.1 kmh SSW 1.6 mph2.6 kmh 30.13 in1020.3 mb 0.00 in0.0 mm 0.00 in0.0 mm 0.00 in0.0 mm
11:49 PM 56.9°F13.8°C 55.2°F12.9°C 94% 0.9 mph SSW1.4 kmh SSW 1.4 mph2.3 kmh 30.13 in1020.3 mb 0.00 in0.0 mm 0.00 in0.0 mm 0.00 in0.0 mm
11:54 PM 56.7°F13.7°C 55.0°F12.8°C 94% Calm Calm -- 30.13 in1020.3 mb 0.00 in0.0 mm 0.00 in0.0 mm 0.00 in0.0 mm